sensor_id;sensor_type;location;lat;lon;timestamp;pressure;altitude;pressure_sealevel;temperature;humidity
69980;BME280;57318;56.232;43.944;2023-03-12T00:00:42;98112.34;;;-1.86;78.86
69980;BME280;57318;56.232;43.944;2023-03-12T00:03:08;98119.41;;;-1.88;79.00
69980;BME280;57318;56.232;43.944;2023-03-12T00:05:36;98113.88;;;-1.82;79.58
69980;BME280;57318;56.232;43.944;2023-03-12T00:08:02;98108.53;;;-1.78;80.11
69980;BME280;57318;56.232;43.944;2023-03-12T00:10:29;98105.75;;;-1.75;80.38
69980;BME280;57318;56.232;43.944;2023-03-12T00:12:54;98101.38;;;-1.75;80.77
69980;BME280;57318;56.232;43.944;2023-03-12T00:15:20;98081.56;;;-1.77;81.09
69980;BME280;57318;56.232;43.944;2023-03-12T00:17:46;98098.69;;;-1.73;81.51
69980;BME280;57318;56.232;43.944;2023-03-12T00:20:12;98079.78;;;-1.77;81.90
69980;BME280;57318;56.232;43.944;2023-03-12T00:22:38;98050.31;;;-1.77;82.04
69980;BME280;57318;56.232;43.944;2023-03-12T00:25:06;98052.13;;;-1.79;82.36
69980;BME280;57318;56.232;43.944;2023-03-12T00:27:35;98063.72;;;-1.85;82.54
69980;BME280;57318;56.232;43.944;2023-03-12T00:30:02;98059.13;;;-1.80;82.70
69980;BME280;57318;56.232;43.944;2023-03-12T00:32:32;98045.44;;;-1.84;83.26
69980;BME280;57318;56.232;43.944;2023-03-12T00:34:57;98040.16;;;-1.82;83.45
69980;BME280;57318;56.232;43.944;2023-03-12T00:37:23;98027.94;;;-1.82;83.63
69980;BME280;57318;56.232;43.944;2023-03-12T00:39:49;98039.19;;;-1.81;84.05
69980;BME280;57318;56.232;43.944;2023-03-12T00:42:14;98039.03;;;-1.78;84.01
69980;BME280;57318;56.232;43.944;2023-03-12T00:44:40;98034.53;;;-1.74;84.08
69980;BME280;57318;56.232;43.944;2023-03-12T00:47:06;98011.94;;;-1.74;84.20
69980;BME280;57318;56.232;43.944;2023-03-12T00:49:32;98014.28;;;-1.69;84.26
69980;BME280;57318;56.232;43.944;2023-03-12T00:51:57;98029.00;;;-1.68;84.63
69980;BME280;57318;56.232;43.944;2023-03-12T00:54:23;98006.41;;;-1.68;84.68
69980;BME280;57318;56.232;43.944;2023-03-12T00:56:49;98011.53;;;-1.66;84.70
69980;BME280;57318;56.232;43.944;2023-03-12T00:59:15;98033.13;;;-1.64;84.82
69980;BME280;57318;56.232;43.944;2023-03-12T01:01:41;98013.88;;;-1.61;84.74
69980;BME280;57318;56.232;43.944;2023-03-12T01:04:07;98007.66;;;-1.59;84.85
69980;BME280;57318;56.232;43.944;2023-03-12T01:06:33;97985.91;;;-1.58;84.91
69980;BME280;57318;56.232;43.944;2023-03-12T01:09:04;97971.03;;;-1.56;84.74
69980;BME280;57318;56.232;43.944;2023-03-12T01:11:30;97985.91;;;-1.58;85.03
69980;BME280;57318;56.232;43.944;2023-03-12T01:13:58;97918.84;;;-1.54;85.06
69980;BME280;57318;56.232;43.944;2023-03-12T01:16:28;97962.97;;;-1.51;85.28
69980;BME280;57318;56.232;43.944;2023-03-12T01:18:58;97970.59;;;-1.48;85.19
69980;BME280;57318;56.232;43.944;2023-03-12T01:21:26;97959.94;;;-1.43;85.28
69980;BME280;57318;56.232;43.944;2023-03-12T01:23:53;97976.34;;;-1.41;85.37
69980;BME280;57318;56.232;43.944;2023-03-12T01:26:18;97962.22;;;-1.37;85.45
69980;BME280;57318;56.232;43.944;2023-03-12T01:28:44;97955.91;;;-1.33;85.55
69980;BME280;57318;56.232;43.944;2023-03-12T01:31:13;97952.34;;;-1.32;85.31
69980;BME280;57318;56.232;43.944;2023-03-12T01:33:39;97951.44;;;-1.31;85.64
69980;BME280;57318;56.232;43.944;2023-03-12T01:36:05;97938.25;;;-1.28;85.57
69980;BME280;57318;56.232;43.944;2023-03-12T01:38:39;97931.00;;;-1.23;85.47
69980;BME280;57318;56.232;43.944;2023-03-12T01:41:05;97954.47;;;-1.23;85.70
69980;BME280;57318;56.232;43.944;2023-03-12T01:43:33;97941.25;;;-1.20;85.63
69980;BME280;57318;56.232;43.944;2023-03-12T01:48:40;97914.00;;;-1.14;85.77
69980;BME280;57318;56.232;43.944;2023-03-12T01:51:09;97958.06;;;-1.10;86.01
69980;BME280;57318;56.232;43.944;2023-03-12T01:53:37;97908.72;;;-1.13;85.93
69980;BME280;57318;56.232;43.944;2023-03-12T01:56:04;97911.97;;;-1.09;86.21
69980;BME280;57318;56.232;43.944;2023-03-12T01:58:32;97902.22;;;-1.05;86.01
69980;BME280;57318;56.232;43.944;2023-03-12T02:00:59;97908.94;;;-1.01;86.34
69980;BME280;57318;56.232;43.944;2023-03-12T02:03:25;97893.13;;;-0.98;86.53
69980;BME280;57318;56.232;43.944;2023-03-12T02:05:59;97892.03;;;-0.94;86.41
69980;BME280;57318;56.232;43.944;2023-03-12T02:08:27;97890.16;;;-0.92;86.55
69980;BME280;57318;56.232;43.944;2023-03-12T02:10:52;97916.78;;;-0.87;86.64
69980;BME280;57318;56.232;43.944;2023-03-12T02:13:18;97888.88;;;-0.85;86.84
69980;BME280;57318;56.232;43.944;2023-03-12T02:15:44;97895.56;;;-0.81;87.01
69980;BME280;57318;56.232;43.944;2023-03-12T02:18:14;97890.19;;;-0.78;87.12
69980;BME280;57318;56.232;43.944;2023-03-12T02:20:55;97882.09;;;-0.73;87.21
69980;BME280;57318;56.232;43.944;2023-03-12T02:23:46;97882.75;;;-0.69;87.66
69980;BME280;57318;56.232;43.944;2023-03-12T02:26:16;97880.22;;;-0.71;87.99
69980;BME280;57318;56.232;43.944;2023-03-12T02:28:43;97873.00;;;-0.66;88.05
69980;BME280;57318;56.232;43.944;2023-03-12T02:31:13;97866.53;;;-0.60;88.64
69980;BME280;57318;56.232;43.944;2023-03-12T02:33:40;97883.16;;;-0.61;88.81
69980;BME280;57318;56.232;43.944;2023-03-12T02:36:06;97847.38;;;-0.59;89.14
69980;BME280;57318;56.232;43.944;2023-03-12T02:41:00;97876.63;;;-0.54;89.45
69980;BME280;57318;56.232;43.944;2023-03-12T02:43:27;97859.09;;;-0.52;89.59
69980;BME280;57318;56.232;43.944;2023-03-12T02:45:54;97831.25;;;-0.51;89.56
69980;BME280;57318;56.232;43.944;2023-03-12T02:48:21;97831.97;;;-0.49;89.86
69980;BME280;57318;56.232;43.944;2023-03-12T02:50:46;97835.31;;;-0.47;90.03
69980;BME280;57318;56.232;43.944;2023-03-12T02:53:12;97843.06;;;-0.46;90.13
69980;BME280;57318;56.232;43.944;2023-03-12T02:55:37;97803.00;;;-0.45;90.04
69980;BME280;57318;56.232;43.944;2023-03-12T02:58:03;97806.25;;;-0.41;90.09
69980;BME280;57318;56.232;43.944;2023-03-12T03:00:29;97799.28;;;-0.41;90.23
69980;BME280;57318;56.232;43.944;2023-03-12T03:03:00;97826.31;;;-0.42;90.45
69980;BME280;57318;56.232;43.944;2023-03-12T03:05:25;97810.38;;;-0.37;90.35
69980;BME280;57318;56.232;43.944;2023-03-12T03:07:51;97809.34;;;-0.34;90.52
69980;BME280;57318;56.232;43.944;2023-03-12T03:10:17;97796.28;;;-0.34;90.32
69980;BME280;57318;56.232;43.944;2023-03-12T03:12:43;97797.22;;;-0.35;90.65
69980;BME280;57318;56.232;43.944;2023-03-12T03:15:09;97793.50;;;-0.31;90.74
69980;BME280;57318;56.232;43.944;2023-03-12T03:17:35;97789.84;;;-0.29;90.82
69980;BME280;57318;56.232;43.944;2023-03-12T03:20:00;97775.88;;;-0.28;91.04
69980;BME280;57318;56.232;43.944;2023-03-12T03:22:26;97789.75;;;-0.27;91.32
69980;BME280;57318;56.232;43.944;2023-03-12T03:24:53;97773.06;;;-0.25;91.26
69980;BME280;57318;56.232;43.944;2023-03-12T03:27:19;97760.94;;;-0.26;91.28
69980;BME280;57318;56.232;43.944;2023-03-12T03:29:45;97767.66;;;-0.22;91.56
69980;BME280;57318;56.232;43.944;2023-03-12T03:32:11;97774.53;;;-0.21;91.70
69980;BME280;57318;56.232;43.944;2023-03-12T03:34:36;97774.44;;;-0.19;91.63
69980;BME280;57318;56.232;43.944;2023-03-12T03:37:03;97717.66;;;-0.15;91.93
69980;BME280;57318;56.232;43.944;2023-03-12T03:39:29;97741.78;;;-0.12;91.93
69980;BME280;57318;56.232;43.944;2023-03-12T03:41:55;97766.03;;;-0.10;91.70
69980;BME280;57318;56.232;43.944;2023-03-12T03:44:20;97723.31;;;-0.09;91.96
69980;BME280;57318;56.232;43.944;2023-03-12T03:46:48;97731.78;;;-0.05;92.19
69980;BME280;57318;56.232;43.944;2023-03-12T03:49:14;97736.00;;;-0.03;92.14
69980;BME280;57318;56.232;43.944;2023-03-12T03:51:40;97754.91;;;0.01;92.39
69980;BME280;57318;56.232;43.944;2023-03-12T03:54:09;97725.97;;;0.04;92.36
69980;BME280;57318;56.232;43.944;2023-03-12T03:56:34;97742.28;;;0.08;92.74
69980;BME280;57318;56.232;43.944;2023-03-12T03:59:00;97714.09;;;0.13;92.54
69980;BME280;57318;56.232;43.944;2023-03-12T04:01:27;97717.34;;;0.16;92.81
69980;BME280;57318;56.232;43.944;2023-03-12T04:03:53;97695.44;;;0.19;92.82
69980;BME280;57318;56.232;43.944;2023-03-12T04:06:18;97678.59;;;0.23;92.54
69980;BME280;57318;56.232;43.944;2023-03-12T04:08:44;97706.19;;;0.27;92.65
69980;BME280;57318;56.232;43.944;2023-03-12T04:11:13;97699.00;;;0.31;92.52
69980;BME280;57318;56.232;43.944;2023-03-12T04:13:39;97715.50;;;0.31;92.71
69980;BME280;57318;56.232;43.944;2023-03-12T04:16:06;97676.00;;;0.36;92.60
69980;BME280;57318;56.232;43.944;2023-03-12T04:18:32;97690.66;;;0.39;92.84
69980;BME280;57318;56.232;43.944;2023-03-12T04:20:58;97667.75;;;0.42;92.86
69980;BME280;57318;56.232;43.944;2023-03-12T04:23:23;97672.16;;;0.42;92.81
69980;BME280;57318;56.232;43.944;2023-03-12T04:25:49;97669.03;;;0.49;93.04
69980;BME280;57318;56.232;43.944;2023-03-12T04:28:14;97679.47;;;0.49;93.06
69980;BME280;57318;56.232;43.944;2023-03-12T04:30:40;97646.75;;;0.57;92.77
69980;BME280;57318;56.232;43.944;2023-03-12T04:33:06;97672.78;;;0.58;92.98
69980;BME280;57318;56.232;43.944;2023-03-12T04:35:32;97621.88;;;0.64;93.01
69980;BME280;57318;56.232;43.944;2023-03-12T04:37:59;97662.56;;;0.68;92.81
69980;BME280;57318;56.232;43.944;2023-03-12T04:40:25;97622.94;;;0.74;92.81
69980;BME280;57318;56.232;43.944;2023-03-12T04:42:51;97675.31;;;0.73;92.75
69980;BME280;57318;56.232;43.944;2023-03-12T04:45:16;97669.66;;;0.79;92.64
69980;BME280;57318;56.232;43.944;2023-03-12T04:47:42;97658.03;;;0.83;92.68
69980;BME280;57318;56.232;43.944;2023-03-12T04:50:09;97651.66;;;0.87;92.75
69980;BME280;57318;56.232;43.944;2023-03-12T04:52:34;97618.19;;;0.92;92.84
69980;BME280;57318;56.232;43.944;2023-03-12T04:55:00;97640.69;;;0.95;92.64
69980;BME280;57318;56.232;43.944;2023-03-12T04:57:26;97636.06;;;0.98;92.44
69980;BME280;57318;56.232;43.944;2023-03-12T04:59:52;97611.28;;;1.04;92.30
69980;BME280;57318;56.232;43.944;2023-03-12T05:02:17;97613.56;;;1.08;92.36
69980;BME280;57318;56.232;43.944;2023-03-12T05:04:43;97590.75;;;1.11;92.08
69980;BME280;57318;56.232;43.944;2023-03-12T05:07:09;97607.75;;;1.16;92.06
69980;BME280;57318;56.232;43.944;2023-03-12T05:09:34;97589.13;;;1.21;91.84
69980;BME280;57318;56.232;43.944;2023-03-12T05:12:00;97575.59;;;1.27;92.12
69980;BME280;57318;56.232;43.944;2023-03-12T05:14:26;97599.69;;;1.32;91.54
69980;BME280;57318;56.232;43.944;2023-03-12T05:16:52;97589.59;;;1.39;91.65
69980;BME280;57318;56.232;43.944;2023-03-12T05:19:17;97586.53;;;1.45;91.34
69980;BME280;57318;56.232;43.944;2023-03-12T05:21:43;97556.66;;;1.48;90.92
69980;BME280;57318;56.232;43.944;2023-03-12T05:24:10;97556.44;;;1.51;90.83
69980;BME280;57318;56.232;43.944;2023-03-12T05:26:36;97595.00;;;1.49;90.44
69980;BME280;57318;56.232;43.944;2023-03-12T05:29:03;97600.22;;;1.49;90.82
69980;BME280;57318;56.232;43.944;2023-03-12T05:31:30;97581.91;;;1.49;90.85
69980;BME280;57318;56.232;43.944;2023-03-12T05:34:00;97606.16;;;1.51;90.44
69980;BME280;57318;56.232;43.944;2023-03-12T05:36:26;97574.31;;;1.57;90.04
69980;BME280;57318;56.232;43.944;2023-03-12T05:38:52;97602.06;;;1.59;90.31
69980;BME280;57318;56.232;43.944;2023-03-12T05:41:24;97575.44;;;1.66;90.26
69980;BME280;57318;56.232;43.944;2023-03-12T05:43:54;97584.59;;;1.71;90.11
69980;BME280;57318;56.232;43.944;2023-03-12T05:46:21;97559.75;;;1.77;90.21
69980;BME280;57318;56.232;43.944;2023-03-12T05:48:47;97567.97;;;1.72;89.60
69980;BME280;57318;56.232;43.944;2023-03-12T05:51:13;97571.41;;;1.73;89.95
69980;BME280;57318;56.232;43.944;2023-03-12T05:53:39;97543.44;;;1.73;89.95
69980;BME280;57318;56.232;43.944;2023-03-12T05:56:07;97565.22;;;1.74;90.05
69980;BME280;57318;56.232;43.944;2023-03-12T05:58:34;97581.75;;;1.74;90.25
69980;BME280;57318;56.232;43.944;2023-03-12T06:01:00;97550.97;;;1.78;90.28
69980;BME280;57318;56.232;43.944;2023-03-12T06:03:26;97584.16;;;1.77;90.41
69980;BME280;57318;56.232;43.944;2023-03-12T06:05:52;97569.41;;;1.76;90.49
69980;BME280;57318;56.232;43.944;2023-03-12T06:08:23;97563.84;;;1.81;90.75
69980;BME280;57318;56.232;43.944;2023-03-12T06:10:50;97588.22;;;1.82;90.95
69980;BME280;57318;56.232;43.944;2023-03-12T06:13:17;97555.88;;;1.83;90.74
69980;BME280;57318;56.232;43.944;2023-03-12T06:15:43;97550.75;;;1.81;90.63
69980;BME280;57318;56.232;43.944;2023-03-12T06:18:08;97540.97;;;1.83;90.89
69980;BME280;57318;56.232;43.944;2023-03-12T06:20:34;97525.03;;;1.86;90.72
69980;BME280;57318;56.232;43.944;2023-03-12T06:23:00;97540.75;;;1.86;91.08
69980;BME280;57318;56.232;43.944;2023-03-12T06:25:25;97527.66;;;1.86;91.25
69980;BME280;57318;56.232;43.944;2023-03-12T06:27:51;97519.91;;;1.85;91.36
69980;BME280;57318;56.232;43.944;2023-03-12T06:30:17;97513.63;;;1.87;91.63
69980;BME280;57318;56.232;43.944;2023-03-12T06:32:42;97514.06;;;1.81;91.79
69980;BME280;57318;56.232;43.944;2023-03-12T06:35:08;97507.88;;;1.82;91.91
69980;BME280;57318;56.232;43.944;2023-03-12T06:37:34;97515.63;;;1.84;92.37
69980;BME280;57318;56.232;43.944;2023-03-12T06:39:59;97509.44;;;1.85;92.22
69980;BME280;57318;56.232;43.944;2023-03-12T06:42:25;97513.75;;;1.86;92.37
69980;BME280;57318;56.232;43.944;2023-03-12T06:44:51;97488.38;;;1.86;92.47
69980;BME280;57318;56.232;43.944;2023-03-12T06:47:16;97490.88;;;1.88;92.76
69980;BME280;57318;56.232;43.944;2023-03-12T06:49:42;97516.34;;;1.86;93.03
69980;BME280;57318;56.232;43.944;2023-03-12T06:52:08;97519.91;;;1.85;93.61
69980;BME280;57318;56.232;43.944;2023-03-12T06:54:33;97499.66;;;1.87;93.55
69980;BME280;57318;56.232;43.944;2023-03-12T06:56:59;97490.88;;;1.88;93.74
69980;BME280;57318;56.232;43.944;2023-03-12T06:59:25;97474.94;;;1.91;94.05
69980;BME280;57318;56.232;43.944;2023-03-12T07:01:51;97502.53;;;1.95;93.73
69980;BME280;57318;56.232;43.944;2023-03-12T07:04:17;97493.50;;;1.99;93.66
69980;BME280;57318;56.232;43.944;2023-03-12T07:06:42;97505.03;;;1.96;93.91
69980;BME280;57318;56.232;43.944;2023-03-12T07:09:08;97499.44;;;2.01;93.70
69980;BME280;57318;56.232;43.944;2023-03-12T07:11:34;97484.59;;;2.02;93.88
69980;BME280;57318;56.232;43.944;2023-03-12T07:14:00;97495.78;;;2.04;93.72
69980;BME280;57318;56.232;43.944;2023-03-12T07:16:26;97500.06;;;2.05;94.13
69980;BME280;57318;56.232;43.944;2023-03-12T07:18:52;97465.16;;;2.04;94.21
69980;BME280;57318;56.232;43.944;2023-03-12T07:21:17;97491.34;;;2.04;94.17
69980;BME280;57318;56.232;43.944;2023-03-12T07:23:51;97474.59;;;2.07;94.16
69980;BME280;57318;56.232;43.944;2023-03-12T07:26:17;97470.06;;;2.09;94.10
69980;BME280;57318;56.232;43.944;2023-03-12T07:28:43;97456.94;;;2.09;93.85
69980;BME280;57318;56.232;43.944;2023-03-12T07:31:09;97455.06;;;2.11;94.07
69980;BME280;57318;56.232;43.944;2023-03-12T07:33:35;97472.56;;;2.10;94.21
69980;BME280;57318;56.232;43.944;2023-03-12T07:36:01;97457.69;;;2.11;94.05
69980;BME280;57318;56.232;43.944;2023-03-12T07:38:27;97446.00;;;2.15;94.36
69980;BME280;57318;56.232;43.944;2023-03-12T07:40:54;97434.69;;;2.14;94.15
69980;BME280;57318;56.232;43.944;2023-03-12T07:43:20;97439.94;;;2.14;94.06
69980;BME280;57318;56.232;43.944;2023-03-12T07:45:46;97443.38;;;2.15;93.82
69980;BME280;57318;56.232;43.944;2023-03-12T07:48:12;97457.91;;;2.19;94.02
69980;BME280;57318;56.232;43.944;2023-03-12T07:50:37;97448.84;;;2.23;93.86
69980;BME280;57318;56.232;43.944;2023-03-12T07:53:04;97474.69;;;2.28;93.88
69980;BME280;57318;56.232;43.944;2023-03-12T07:55:30;97488.06;;;2.36;93.56
69980;BME280;57318;56.232;43.944;2023-03-12T07:57:56;97467.69;;;2.40;93.41
69980;BME280;57318;56.232;43.944;2023-03-12T08:00:25;97460.16;;;2.46;93.18
69980;BME280;57318;56.232;43.944;2023-03-12T08:02:51;97445.88;;;2.50;92.93
69980;BME280;57318;56.232;43.944;2023-03-12T08:05:17;97432.06;;;2.48;92.41
69980;BME280;57318;56.232;43.944;2023-03-12T08:07:43;97440.03;;;2.47;92.74
69980;BME280;57318;56.232;43.944;2023-03-12T08:10:09;97439.31;;;2.45;92.80
69980;BME280;57318;56.232;43.944;2023-03-12T08:12:35;97420.59;;;2.49;92.55
69980;BME280;57318;56.232;43.944;2023-03-12T08:15:05;97421.28;;;2.51;92.73
69980;BME280;57318;56.232;43.944;2023-03-12T08:17:31;97419.41;;;2.53;92.51
69980;BME280;57318;56.232;43.944;2023-03-12T08:19:56;97411.41;;;2.55;92.38
69980;BME280;57318;56.232;43.944;2023-03-12T08:22:22;97411.31;;;2.57;92.41
69980;BME280;57318;56.232;43.944;2023-03-12T08:24:48;97415.81;;;2.55;92.20
69980;BME280;57318;56.232;43.944;2023-03-12T08:27:13;97402.81;;;2.53;92.51
69980;BME280;57318;56.232;43.944;2023-03-12T08:29:40;97393.06;;;2.55;92.44
69980;BME280;57318;56.232;43.944;2023-03-12T08:32:06;97408.69;;;2.57;92.36
69980;BME280;57318;56.232;43.944;2023-03-12T08:34:34;97401.03;;;2.65;92.04
69980;BME280;57318;56.232;43.944;2023-03-12T08:37:00;97390.16;;;2.69;92.03
69980;BME280;57318;56.232;43.944;2023-03-12T08:39:25;97375.47;;;2.78;91.50
69980;BME280;57318;56.232;43.944;2023-03-12T08:41:51;97375.47;;;2.78;90.78
69980;BME280;57318;56.232;43.944;2023-03-12T08:44:22;97379.25;;;2.85;91.11
69980;BME280;57318;56.232;43.944;2023-03-12T08:46:49;97377.94;;;2.91;90.61
69980;BME280;57318;56.232;43.944;2023-03-12T08:49:15;97366.56;;;3.02;90.28
69980;BME280;57318;56.232;43.944;2023-03-12T08:51:41;97374.50;;;3.12;89.84
69980;BME280;57318;56.232;43.944;2023-03-12T08:54:07;97354.66;;;3.19;89.33
69980;BME280;57318;56.232;43.944;2023-03-12T08:56:34;97391.00;;;3.23;88.84
69980;BME280;57318;56.232;43.944;2023-03-12T08:59:01;97342.38;;;3.19;88.65
69980;BME280;57318;56.232;43.944;2023-03-12T09:01:27;97375.50;;;3.20;88.63
69980;BME280;57318;56.232;43.944;2023-03-12T09:03:52;97361.44;;;3.21;88.49
69980;BME280;57318;56.232;43.944;2023-03-12T09:06:19;97396.00;;;3.27;88.15
69980;BME280;57318;56.232;43.944;2023-03-12T09:08:46;97375.00;;;3.27;87.90
69980;BME280;57318;56.232;43.944;2023-03-12T09:11:13;97354.66;;;3.40;87.43
69980;BME280;57318;56.232;43.944;2023-03-12T09:13:39;97353.94;;;3.38;86.81
69980;BME280;57318;56.232;43.944;2023-03-12T09:16:06;97367.91;;;3.38;87.27
69980;BME280;57318;56.232;43.944;2023-03-12T09:18:33;97346.78;;;3.40;87.24
69980;BME280;57318;56.232;43.944;2023-03-12T09:20:59;97323.16;;;3.40;86.74
69980;BME280;57318;56.232;43.944;2023-03-12T09:23:28;97331.97;;;3.39;86.91
69980;BME280;57318;56.232;43.944;2023-03-12T09:25:55;97322.81;;;3.33;86.97
69980;BME280;57318;56.232;43.944;2023-03-12T09:28:20;97332.50;;;3.33;87.05
69980;BME280;57318;56.232;43.944;2023-03-12T09:30:46;97333.06;;;3.36;86.61
69980;BME280;57318;56.232;43.944;2023-03-12T09:33:12;97333.66;;;3.40;86.48
69980;BME280;57318;56.232;43.944;2023-03-12T09:35:40;97332.75;;;3.51;85.89
69980;BME280;57318;56.232;43.944;2023-03-12T09:38:06;97325.44;;;3.54;85.18
69980;BME280;57318;56.232;43.944;2023-03-12T09:40:34;97304.19;;;3.67;85.03
69980;BME280;57318;56.232;43.944;2023-03-12T09:43:12;97317.38;;;3.77;84.54
69980;BME280;57318;56.232;43.944;2023-03-12T09:45:43;97304.84;;;3.90;84.27
69980;BME280;57318;56.232;43.944;2023-03-12T09:48:38;97305.16;;;4.07;83.01
69980;BME280;57318;56.232;43.944;2023-03-12T09:51:16;97285.56;;;4.30;81.92
69980;BME280;57318;56.232;43.944;2023-03-12T09:53:51;97249.72;;;4.39;81.61
69980;BME280;57318;56.232;43.944;2023-03-12T09:56:19;97284.88;;;4.28;80.83
69980;BME280;57318;56.232;43.944;2023-03-12T09:58:46;97248.75;;;4.21;81.48
69980;BME280;57318;56.232;43.944;2023-03-12T10:12:10;97271.31;;;4.23;81.18
69980;BME280;57318;56.232;43.944;2023-03-12T10:14:47;97239.50;;;4.26;81.44
69980;BME280;57318;56.232;43.944;2023-03-12T10:17:36;97251.13;;;4.43;80.37
69980;BME280;57318;56.232;43.944;2023-03-12T10:23:05;97244.06;;;4.54;79.75
69980;BME280;57318;56.232;43.944;2023-03-12T10:25:46;97243.09;;;4.64;79.44
69980;BME280;57318;56.232;43.944;2023-03-12T10:28:19;97216.22;;;4.70;79.18
69980;BME280;57318;56.232;43.944;2023-03-12T10:30:56;97216.91;;;4.73;79.00
69980;BME280;57318;56.232;43.944;2023-03-12T10:33:24;97190.59;;;4.73;78.81
69980;BME280;57318;56.232;43.944;2023-03-12T10:36:24;97192.53;;;4.70;78.91
69980;BME280;57318;56.232;43.944;2023-03-12T10:38:52;97185.38;;;4.53;79.44
69980;BME280;57318;56.232;43.944;2023-03-12T10:41:29;97178.03;;;4.47;79.86
69980;BME280;57318;56.232;43.944;2023-03-12T10:43:59;97214.16;;;4.35;79.96
69980;BME280;57318;56.232;43.944;2023-03-12T10:46:37;97180.25;;;4.32;80.17
69980;BME280;57318;56.232;43.944;2023-03-12T10:52:15;97193.28;;;4.14;80.38
69980;BME280;57318;56.232;43.944;2023-03-12T10:54:42;97171.97;;;4.07;81.45
69980;BME280;57318;56.232;43.944;2023-03-12T10:57:13;97168.78;;;4.04;81.34
69980;BME280;57318;56.232;43.944;2023-03-12T10:59:44;97168.50;;;4.07;81.40
69980;BME280;57318;56.232;43.944;2023-03-12T11:02:33;97192.72;;;4.10;81.34
69980;BME280;57318;56.232;43.944;2023-03-12T11:05:01;97209.44;;;4.19;81.29
69980;BME280;57318;56.232;43.944;2023-03-12T11:07:30;97166.81;;;4.35;80.36
69980;BME280;57318;56.232;43.944;2023-03-12T11:12:33;97152.41;;;4.49;79.57
69980;BME280;57318;56.232;43.944;2023-03-12T11:15:22;97167.34;;;4.58;79.38
69980;BME280;57318;56.232;43.944;2023-03-12T11:17:48;97139.97;;;4.61;78.98
69980;BME280;57318;56.232;43.944;2023-03-12T11:22:45;97118.75;;;4.72;78.50
69980;BME280;57318;56.232;43.944;2023-03-12T11:25:24;97146.03;;;4.61;78.43
69980;BME280;57318;56.232;43.944;2023-03-12T11:27:53;97106.72;;;4.60;78.99
69980;BME280;57318;56.232;43.944;2023-03-12T11:30:23;97090.69;;;4.53;78.81
69980;BME280;57318;56.232;43.944;2023-03-12T11:32:51;97103.09;;;4.70;79.01
69980;BME280;57318;56.232;43.944;2023-03-12T11:35:28;97102.47;;;4.86;78.47
69980;BME280;57318;56.232;43.944;2023-03-12T11:38:30;97084.53;;;5.10;77.72
69980;BME280;57318;56.232;43.944;2023-03-12T11:43:41;97115.22;;;4.91;77.36
69980;BME280;57318;56.232;43.944;2023-03-12T11:52:07;97095.56;;;4.38;80.09
69980;BME280;57318;56.232;43.944;2023-03-12T11:55:08;97079.53;;;4.31;80.56
69980;BME280;57318;56.232;43.944;2023-03-12T12:06:07;97075.22;;;4.30;80.93
69980;BME280;57318;56.232;43.944;2023-03-12T12:11:57;97049.50;;;4.24;81.02
69980;BME280;57318;56.232;43.944;2023-03-12T12:15:11;97046.72;;;4.26;81.03
69980;BME280;57318;56.232;43.944;2023-03-12T12:17:33;97059.91;;;4.16;81.43
69980;BME280;57318;56.232;43.944;2023-03-12T12:20:26;97062.94;;;4.11;81.66
69980;BME280;57318;56.232;43.944;2023-03-12T12:23:15;97037.09;;;4.07;82.19
69980;BME280;57318;56.232;43.944;2023-03-12T12:26:01;97050.22;;;4.07;82.13
69980;BME280;57318;56.232;43.944;2023-03-12T12:34:00;97021.91;;;3.91;83.25
69980;BME280;57318;56.232;43.944;2023-03-12T12:36:33;97026.63;;;3.87;83.76
69980;BME280;57318;56.232;43.944;2023-03-12T12:39:08;97045.69;;;3.89;83.54
69980;BME280;57318;56.232;43.944;2023-03-12T12:41:42;97028.25;;;3.88;84.20
69980;BME280;57318;56.232;43.944;2023-03-12T12:44:20;97005.63;;;3.87;83.74
69980;BME280;57318;56.232;43.944;2023-03-12T12:46:52;97019.56;;;3.88;83.95
69980;BME280;57318;56.232;43.944;2023-03-12T12:49:43;97024.00;;;3.87;84.31
69980;BME280;57318;56.232;43.944;2023-03-12T12:52:22;97002.31;;;3.85;84.30
69980;BME280;57318;56.232;43.944;2023-03-12T13:02:47;96979.91;;;3.81;85.06
69980;BME280;57318;56.232;43.944;2023-03-12T13:05:27;96991.09;;;3.83;85.11
69980;BME280;57318;56.232;43.944;2023-03-12T13:07:53;96985.56;;;3.76;85.76
69980;BME280;57318;56.232;43.944;2023-03-12T13:13:19;96962.06;;;3.75;86.22
69980;BME280;57318;56.232;43.944;2023-03-12T13:15:45;96960.00;;;3.69;86.79
69980;BME280;57318;56.232;43.944;2023-03-12T13:18:24;96956.84;;;3.65;86.99
69980;BME280;57318;56.232;43.944;2023-03-12T13:23:34;96954.25;;;3.55;87.21
69980;BME280;57318;56.232;43.944;2023-03-12T13:28:56;96940.16;;;3.47;87.90
69980;BME280;57318;56.232;43.944;2023-03-12T13:33:56;96928.81;;;3.46;88.62
69980;BME280;57318;56.232;43.944;2023-03-12T13:36:24;96897.31;;;3.46;88.80
69980;BME280;57318;56.232;43.944;2023-03-12T13:41:52;96908.25;;;3.41;89.31
69980;BME280;57318;56.232;43.944;2023-03-12T13:49:25;96932.16;;;3.38;89.80
69980;BME280;57318;56.232;43.944;2023-03-12T13:51:59;96920.13;;;3.36;90.50
69980;BME280;57318;56.232;43.944;2023-03-12T13:54:28;96909.34;;;3.39;90.38
69980;BME280;57318;56.232;43.944;2023-03-12T13:56:59;96923.28;;;3.39;90.65
69980;BME280;57318;56.232;43.944;2023-03-12T13:59:27;96912.91;;;3.38;90.78
69980;BME280;57318;56.232;43.944;2023-03-12T14:01:58;96904.38;;;3.36;91.42
69980;BME280;57318;56.232;43.944;2023-03-12T14:04:34;96890.97;;;3.39;91.00
69980;BME280;57318;56.232;43.944;2023-03-12T14:18:12;96899.53;;;3.31;92.05
69980;BME280;57318;56.232;43.944;2023-03-12T14:20:53;96882.44;;;3.27;92.26
69980;BME280;57318;56.232;43.944;2023-03-12T14:23:20;96856.19;;;3.27;92.40
69980;BME280;57318;56.232;43.944;2023-03-12T14:25:47;96866.69;;;3.27;92.58
69980;BME280;57318;56.232;43.944;2023-03-12T14:28:19;96868.47;;;3.27;92.74
69980;BME280;57318;56.232;43.944;2023-03-12T14:33:17;96853.69;;;3.25;93.20
69980;BME280;57318;56.232;43.944;2023-03-12T14:35:44;96857.00;;;3.28;93.82
69980;BME280;57318;56.232;43.944;2023-03-12T14:38:15;96870.13;;;3.28;93.56